Potsdam, Minnesota
Current Conditions -  °F | °C
As of 1:34 AM on Sunday 23 Nov 2014 (Local Time) from K9MN Reporting Station
Overcast Overcast  
Wind Chill: 51°   Ceiling: 700
Heat Index: 51°   Visibility: 7mi
Dew Point: 49°   Wind: 15mph
Humidity: 94%   Direction: 170°S
Pressure: 29.54"   Gusts: 24mph
Location:  44.1501°N, 92.2609°W
Report Text: K9MN 230734Z AUTO 17013G21KT 7SM OVC007 11/10 A2954 RMK AO1 T01050096
Loading
Personal Weather Stations






























Interactive Weather Map New forecast layout! Learn more

10-Day Weather Forecast

Advertisements
Track Severe Weather on mobile